Time;durP1;ratioP1;P1;durP2;ratioP2;P2;SDS_P1;SDS_P2;PMS_P1;PMS_P2;Temp;Humidity;BMP_temperature;BMP_pressure;BME280_temperature;BME280_humidity;BME280_pressure;Samples;Min_cycle;Max_cycle;Signal;HPM_P1;HPM_P2
2023/02/07 00:01:26;;;;;;;0.00;0.00;;;;;;;3.23;36.67;96443.44;5050713;28;20197;-66
2023/02/07 00:03:55;;;;;;;0.43;0.43;;;;;;;3.09;36.79;96442.41;5050974;28;20197;-65
2023/02/07 00:06:30;;;;;;;0.00;0.00;;;;;;;3.25;36.28;96451.06;5050371;28;20875;-66
2023/02/07 00:09:00;;;;;;;0.03;0.03;;;;;;;3.24;36.54;96450.25;5050874;28;20536;-65
2023/02/07 00:11:27;;;;;;;0.00;0.00;;;;;;;3.18;36.69;96452.69;5050743;28;20212;-64
2023/02/07 00:13:56;;;;;;;0.38;0.38;;;;;;;3.12;36.80;96456.78;5051370;28;20204;-64
2023/02/07 00:16:24;;;;;;;0.00;0.00;;;;;;;2.74;37.27;96447.28;5050936;28;20224;-66
2023/02/07 00:18:52;;;;;;;0.05;0.05;;;;;;;2.90;37.72;96458.38;5051135;28;20284;-67
2023/02/07 00:21:22;;;;;;;0.00;0.00;;;;;;;2.90;37.38;96463.53;5050389;28;20627;-65
2023/02/07 00:23:50;;;;;;;0.00;0.00;;;;;;;2.85;37.82;96473.59;5037442;28;20262;-65
2023/02/07 00:26:18;;;;;;;0.03;0.03;;;;;;;3.00;37.68;96464.16;5050240;28;20212;-65
2023/02/07 00:28:47;;;;;;;0.00;0.00;;;;;;;3.13;37.50;96473.94;5049186;28;20307;-64
2023/02/07 00:31:28;;;;;;;0.00;0.00;;;;;;;3.16;37.37;96465.81;5050316;28;20258;-67
2023/02/07 00:33:58;;;;;;;0.00;0.00;;;;;;;3.22;37.17;96474.69;5038136;28;20228;-64
2023/02/07 00:36:27;;;;;;;0.00;0.00;;;;;;;3.10;37.59;96475.09;5048545;28;20674;-64
2023/02/07 00:39:00;;;;;;;0.00;0.00;;;;;;;3.26;37.40;96488.91;5048459;28;20227;-64
2023/02/07 00:41:28;;;;;;;0.08;0.08;;;;;;;3.19;37.39;96482.81;5050072;28;20288;-65
2023/02/07 00:43:55;;;;;;;0.10;0.10;;;;;;;2.62;37.68;96470.16;5049468;28;20192;-64
2023/02/07 00:46:23;;;;;;;0.00;0.00;;;;;;;2.90;37.85;96473.09;5049894;28;20291;-65
2023/02/07 00:48:53;;;;;;;0.00;0.00;;;;;;;3.05;37.72;96492.91;5048666;28;20204;-66
2023/02/07 00:51:20;;;;;;;0.82;0.82;;;;;;;3.10;37.70;96485.44;5049768;28;20192;-66
2023/02/07 00:53:47;;;;;;;0.00;0.00;;;;;;;3.12;37.65;96492.25;5050388;28;20275;-65
2023/02/07 00:56:14;;;;;;;0.00;0.00;;;;;;;2.77;37.80;96483.19;5047580;28;20262;-67
2023/02/07 00:58:41;;;;;;;0.20;0.20;;;;;;;2.57;38.27;96493.16;5048029;28;20216;-66
2023/02/07 01:01:08;;;;;;;0.00;0.00;;;;;;;2.59;38.32;96475.66;5048867;28;20285;-66
2023/02/07 01:03:35;;;;;;;0.10;0.10;;;;;;;2.70;38.29;96484.84;5048542;28;20207;-65
2023/02/07 01:06:03;;;;;;;0.30;0.30;;;;;;;2.79;38.10;96487.22;5048167;28;20232;-65
2023/02/07 01:08:30;;;;;;;0.00;0.00;;;;;;;2.90;38.14;96479.06;5049474;28;20208;-65
2023/02/07 01:11:01;;;;;;;0.00;0.00;;;;;;;2.96;38.15;96478.41;5036407;28;20200;-68
2023/02/07 01:13:28;;;;;;;0.00;0.00;;;;;;;2.60;38.67;96481.63;5048444;28;20204;-67
2023/02/07 01:15:55;;;;;;;0.00;0.00;;;;;;;2.79;38.33;96470.91;5048971;28;20227;-66
2023/02/07 01:18:22;;;;;;;0.10;0.10;;;;;;;2.91;38.26;96470.34;5049092;28;20228;-64
2023/02/07 01:20:49;;;;;;;0.40;0.40;;;;;;;2.95;38.14;96476.81;5048194;28;20763;-66
2023/02/07 01:23:18;;;;;;;0.00;0.00;;;;;;;2.81;38.25;96474.91;5049464;28;20663;-65
2023/02/07 01:25:45;;;;;;;0.00;0.00;;;;;;;2.68;38.25;96461.69;5048640;28;20192;-65
2023/02/07 01:28:13;;;;;;;0.10;0.10;;;;;;;2.84;38.12;96464.25;5049415;28;20211;-66
2023/02/07 01:30:42;;;;;;;0.00;0.00;;;;;;;2.95;38.37;96465.63;5047617;28;20575;-64
2023/02/07 01:33:10;;;;;;;0.00;0.00;;;;;;;3.17;37.89;96464.06;5048918;28;20250;-66
2023/02/07 01:35:37;;;;;;;0.00;0.00;;;;;;;3.15;37.87;96451.28;5048916;28;20200;-67
2023/02/07 01:38:04;;;;;;;0.00;0.00;;;;;;;3.31;37.95;96447.75;5049544;28;20222;-66
2023/02/07 01:40:35;;;;;;;0.00;0.00;;;;;;;3.18;38.33;96465.66;5047729;28;20209;-66
2023/02/07 01:43:02;;;;;;;0.20;0.20;;;;;;;3.23;37.64;96458.19;5049373;28;20663;-66
2023/02/07 01:45:35;;;;;;;1.27;0.43;;;;;;;2.96;38.91;96459.47;5047249;28;20296;-66
2023/02/07 01:48:13;;;;;;;0.20;0.20;;;;;;;3.11;38.32;96437.06;5048860;28;20536;-64
2023/02/07 01:50:43;;;;;;;0.90;0.88;;;;;;;3.02;38.26;96454.44;5049059;28;20207;-67
2023/02/07 01:53:14;;;;;;;0.00;0.00;;;;;;;3.28;37.87;96448.13;5047455;28;20322;-63
2023/02/07 01:55:44;;;;;;;0.00;0.00;;;;;;;3.33;37.66;96448.41;5048918;28;20192;-66
2023/02/07 01:58:11;;;;;;;0.00;0.00;;;;;;;3.12;38.11;96450.81;5049245;28;20220;-65
2023/02/07 02:00:38;;;;;;;0.00;0.00;;;;;;;3.08;37.81;96445.97;5046801;28;20196;-66
2023/02/07 02:03:05;;;;;;;0.00;0.00;;;;;;;3.01;37.90;96464.97;5048912;28;20254;-66
2023/02/07 02:05:35;;;;;;;0.00;0.00;;;;;;;3.18;37.90;96455.28;5048130;28;20197;-64
2023/02/07 02:08:03;;;;;;;0.03;0.03;;;;;;;3.09;38.13;96467.50;5047981;28;20674;-65
2023/02/07 02:11:10;;;;;;;0.00;0.00;;;;;;;3.20;37.78;96458.50;5046716;28;20192;-65
2023/02/07 02:14:01;;;;;;;1.45;1.35;;;;;;;2.44;38.91;96467.00;5043450;28;20212;-64
2023/02/07 02:16:31;;;;;;;0.40;0.40;;;;;;;2.90;37.97;96462.75;5041516;28;20227;-63
2023/02/07 02:19:41;;;;;;;1.05;0.80;;;;;;;2.83;38.65;96461.78;5035244;28;20582;-65
2023/02/07 02:22:18;;;;;;;0.10;0.10;;;;;;;2.78;38.35;96464.09;5033567;28;20266;-64
2023/02/07 02:25:20;;;;;;;0.00;0.00;;;;;;;2.36;38.54;96459.25;5048543;28;20192;-65
2023/02/07 02:28:08;;;;;;;0.00;0.00;;;;;;;2.51;38.87;96462.75;5036991;28;20196;-65
2023/02/07 02:30:44;;;;;;;0.52;0.52;;;;;;;2.68;38.77;96464.28;5046162;28;20550;-68
2023/02/07 02:33:15;;;;;;;0.00;0.00;;;;;;;2.60;39.04;96466.94;5048065;28;20620;-68
2023/02/07 02:36:01;;;;;;;0.00;0.00;;;;;;;2.87;38.28;96468.25;5047789;28;20697;-66
2023/02/07 02:38:44;;;;;;;0.00;0.00;;;;;;;2.66;38.56;96471.44;5046592;28;20227;-66
2023/02/07 02:41:27;;;;;;;0.00;0.00;;;;;;;2.86;38.14;96471.84;5046339;28;20200;-65
2023/02/07 02:44:06;;;;;;;0.00;0.00;;;;;;;2.78;38.42;96485.59;5030147;28;20212;-65
2023/02/07 02:46:37;;;;;;;0.00;0.00;;;;;;;2.91;38.42;96485.06;5046225;28;20212;-64
2023/02/07 02:49:08;;;;;;;0.25;0.25;;;;;;;2.96;38.18;96481.00;5048104;28;20287;-67
2023/02/07 02:51:36;;;;;;;0.00;0.00;;;;;;;2.66;38.74;96462.84;5045910;28;20244;-64
2023/02/07 02:54:33;;;;;;;0.10;0.10;;;;;;;2.68;38.38;96484.22;5047778;28;20200;-64
2023/02/07 02:57:11;;;;;;;0.00;0.00;;;;;;;2.51;38.92;96483.47;5030893;28;20288;-63
2023/02/07 03:00:16;;;;;;;0.20;0.20;;;;;;;2.33;38.95;96485.44;5046574;28;20226;-64
2023/02/07 03:02:50;;;;;;;2.63;0.52;;;;;;;2.19;39.35;96498.25;5062930;28;20215;-66
2023/02/07 03:05:24;;;;;;;0.10;0.10;;;;;;;2.18;39.19;96481.09;5046528;28;20676;-66
2023/02/07 03:08:22;;;;;;;0.03;0.03;;;;;;;2.23;39.13;96495.16;5036485;28;20199;-64
2023/02/07 03:11:06;;;;;;;0.00;0.00;;;;;;;2.10;39.35;96489.69;5047804;28;20216;-66
2023/02/07 03:13:57;;;;;;;0.00;0.00;;;;;;;2.13;39.00;96473.88;5046487;28;20794;-67
2023/02/07 03:16:46;;;;;;;0.00;0.00;;;;;;;2.24;38.67;96504.56;5047559;28;20201;-67
2023/02/07 03:19:31;;;;;;;0.10;0.10;;;;;;;2.12;38.96;96489.53;5038820;28;20234;-67
2023/02/07 03:22:12;;;;;;;0.25;0.20;;;;;;;1.97;39.16;96492.00;5050942;28;20869;-63
2023/02/07 03:24:50;;;;;;;0.00;0.00;;;;;;;2.19;39.18;96483.53;5052122;28;20214;-67
2023/02/07 03:27:21;;;;;;;0.00;0.00;;;;;;;1.56;39.72;96491.19;5051421;28;20238;-66
2023/02/07 03:29:56;;;;;;;0.10;0.10;;;;;;;1.86;39.27;96489.72;5051269;28;20306;-67
2023/02/07 03:32:29;;;;;;;0.00;0.00;;;;;;;1.91;39.02;96482.28;5039815;28;20410;-64
2023/02/07 03:35:03;;;;;;;0.00;0.00;;;;;;;2.27;38.96;96488.69;5050848;28;20291;-66
2023/02/07 03:37:40;;;;;;;0.10;0.10;;;;;;;2.16;38.86;96483.88;5051840;28;20298;-66
2023/02/07 03:40:08;;;;;;;0.08;0.08;;;;;;;2.25;39.01;96477.69;5050280;28;20220;-64
2023/02/07 03:42:45;;;;;;;0.00;0.00;;;;;;;2.56;38.57;96476.00;5051100;28;20255;-65
2023/02/07 03:45:16;;;;;;;0.00;0.00;;;;;;;2.68;38.17;96482.41;5038252;28;20215;-63
2023/02/07 03:47:43;;;;;;;0.08;0.08;;;;;;;2.60;38.18;96497.97;5051512;28;20189;-63
2023/02/07 03:50:11;;;;;;;0.30;0.30;;;;;;;2.56;38.60;96481.16;5050972;28;20679;-66
2023/02/07 03:52:38;;;;;;;0.00;0.00;;;;;;;2.11;38.60;96493.91;5051001;28;20291;-66
2023/02/07 03:55:05;;;;;;;0.00;0.00;;;;;;;2.23;38.85;96482.22;5051014;28;20207;-64
2023/02/07 03:57:32;;;;;;;0.05;0.05;;;;;;;2.10;38.58;96483.72;5051453;28;20218;-65
2023/02/07 03:59:59;;;;;;;0.00;0.00;;;;;;;2.56;38.47;96488.94;5050685;28;20235;-63
2023/02/07 04:02:26;;;;;;;0.00;0.00;;;;;;;2.53;38.34;96485.88;5050972;28;20196;-64
2023/02/07 04:04:53;;;;;;;0.25;0.25;;;;;;;2.85;38.06;96481.38;5051238;28;20270;-66
2023/02/07 04:07:19;;;;;;;3.13;0.52;;;;;;;2.69;37.26;96462.50;5050867;28;20196;-66
2023/02/07 04:09:46;;;;;;;0.00;0.00;;;;;;;2.66;38.13;96486.97;5050769;28;20200;-64
2023/02/07 04:12:13;;;;;;;1.85;1.17;;;;;;;2.81;38.12;96485.25;5050214;28;20200;-64
2023/02/07 04:14:40;;;;;;;0.00;0.00;;;;;;;2.37;37.99;96484.16;5051131;28;20204;-65
2023/02/07 04:17:07;;;;;;;0.00;0.00;;;;;;;2.74;37.31;96458.44;5049919;28;20201;-64
2023/02/07 04:19:35;;;;;;;0.00;0.00;;;;;;;2.99;37.76;96467.69;5051182;28;20795;-65
2023/02/07 04:22:03;;;;;;;0.00;0.00;;;;;;;2.97;37.49;96480.00;5050328;28;20279;-65
2023/02/07 04:24:31;;;;;;;0.63;0.55;;;;;;;3.05;37.37;96479.97;5050825;28;20214;-63
2023/02/07 04:26:58;;;;;;;0.15;0.15;;;;;;;2.84;37.73;96479.78;5050247;28;20277;-65
2023/02/07 04:29:25;;;;;;;0.00;0.00;;;;;;;3.09;37.65;96483.03;5050202;28;20193;-66
2023/02/07 04:31:52;;;;;;;0.00;0.00;;;;;;;3.03;37.61;96479.34;5050503;28;20220;-63
2023/02/07 04:34:19;;;;;;;0.08;0.08;;;;;;;2.94;37.94;96490.72;5050600;28;20203;-65
2023/02/07 04:36:45;;;;;;;0.00;0.00;;;;;;;2.98;38.02;96476.47;5050283;28;20197;-64
2023/02/07 04:39:12;;;;;;;0.15;0.15;;;;;;;3.10;37.59;96490.63;5050454;28;20718;-65
2023/02/07 04:41:39;;;;;;;3.40;1.10;;;;;;;2.85;37.73;96481.38;5050148;28;20204;-64
2023/02/07 04:44:06;;;;;;;0.00;0.00;;;;;;;2.92;37.49;96487.47;5050507;28;20246;-64
2023/02/07 04:46:33;;;;;;;0.00;0.00;;;;;;;2.51;37.51;96483.47;5049759;28;20211;-65
2023/02/07 04:49:00;;;;;;;0.70;0.32;;;;;;;2.74;37.24;96489.50;5050392;28;20192;-66
2023/02/07 04:51:27;;;;;;;0.00;0.00;;;;;;;3.01;37.34;96489.06;5050091;28;20564;-64
2023/02/07 04:53:53;;;;;;;0.00;0.00;;;;;;;2.95;37.68;96492.34;5050280;28;20816;-66
2023/02/07 04:56:22;;;;;;;0.55;0.40;;;;;;;2.94;38.04;96490.72;5049266;28;20270;-66
2023/02/07 04:58:48;;;;;;;0.00;0.00;;;;;;;2.76;37.99;96497.91;5050296;28;20311;-67
2023/02/07 05:01:16;;;;;;;0.17;0.10;;;;;;;2.85;37.56;96507.25;5047936;28;20228;-65
2023/02/07 05:03:43;;;;;;;0.00;0.00;;;;;;;2.88;37.71;96506.91;5050318;28;20188;-64
2023/02/07 05:06:10;;;;;;;0.28;0.28;;;;;;;2.98;37.75;96511.88;5048533;28;20738;-66
2023/02/07 05:08:36;;;;;;;0.52;0.45;;;;;;;2.79;37.68;96512.31;5049821;28;20258;-67
2023/02/07 05:11:04;;;;;;;0.00;0.00;;;;;;;2.71;37.93;96520.91;5049357;28;20261;-66
2023/02/07 05:13:31;;;;;;;0.00;0.00;;;;;;;2.78;38.20;96523.63;5049953;28;20223;-66
2023/02/07 05:16:01;;;;;;;0.00;0.00;;;;;;;2.76;38.20;96523.78;5047888;28;20232;-64
2023/02/07 05:18:28;;;;;;;1.77;0.52;;;;;;;2.65;37.93;96533.69;5049270;28;20201;-66
2023/02/07 05:20:54;;;;;;;0.00;0.00;;;;;;;2.84;38.03;96534.13;5049166;28;20208;-64
2023/02/07 05:23:21;;;;;;;0.00;0.00;;;;;;;2.49;38.23;96511.28;5049144;28;20573;-69
2023/02/07 05:25:48;;;;;;;0.00;0.00;;;;;;;2.73;38.16;96524.13;5036273;28;20192;-67
2023/02/07 05:28:15;;;;;;;0.15;0.15;;;;;;;2.83;38.36;96529.09;5049792;28;20626;-68
2023/02/07 05:30:42;;;;;;;0.25;0.25;;;;;;;2.85;38.14;96537.50;5049285;28;20275;-65
2023/02/07 05:33:10;;;;;;;0.00;0.00;;;;;;;2.88;37.79;96537.97;5049397;28;20237;-66
2023/02/07 05:35:39;;;;;;;0.68;0.68;;;;;;;3.01;38.02;96527.91;5049651;28;20212;-66
2023/02/07 05:38:09;;;;;;;2.17;0.85;;;;;;;2.93;37.84;96530.53;5049907;28;20574;-62
2023/02/07 05:40:37;;;;;;;1.38;1.27;;;;;;;3.03;37.47;96528.53;5049181;28;20286;-64
2023/02/07 05:43:04;;;;;;;0.65;0.65;;;;;;;3.10;38.34;96542.41;5049408;28;20247;-63
2023/02/07 05:45:32;;;;;;;0.30;0.30;;;;;;;3.07;37.82;96532.41;5049199;28;20204;-67
2023/02/07 05:47:59;;;;;;;0.52;0.22;;;;;;;2.93;37.96;96559.03;5049145;28;20204;-64
2023/02/07 05:50:26;;;;;;;0.03;0.03;;;;;;;2.62;38.16;96542.63;5048678;28;20193;-67
2023/02/07 05:53:04;;;;;;;1.13;0.85;;;;;;;2.73;38.18;96552.63;5049362;28;20242;-68
2023/02/07 05:55:31;;;;;;;0.00;0.00;;;;;;;2.75;38.35;96563.59;5048153;28;20205;-65
2023/02/07 05:57:59;;;;;;;0.00;0.00;;;;;;;2.62;38.46;96559.91;5048468;28;20242;-64
2023/02/07 06:00:26;;;;;;;0.30;0.30;;;;;;;2.71;38.25;96562.31;5047723;28;20251;-67
2023/02/07 06:02:53;;;;;;;1.23;1.02;;;;;;;2.87;37.68;96557.09;5048383;28;20295;-65
2023/02/07 06:05:21;;;;;;;0.13;0.13;;;;;;;2.75;37.89;96558.44;5048108;28;20201;-63
2023/02/07 06:07:50;;;;;;;6.13;2.20;;;;;;;2.84;38.20;96544.50;5048343;28;20656;-63
2023/02/07 06:10:17;;;;;;;0.00;0.00;;;;;;;3.02;37.68;96564.97;5048658;28;20193;-66
2023/02/07 06:12:45;;;;;;;0.73;0.73;;;;;;;3.09;37.59;96546.00;5048864;28;20200;-65
2023/02/07 06:15:12;;;;;;;0.00;0.00;;;;;;;3.07;38.00;96560.06;5048201;28;20258;-71
2023/02/07 06:17:39;;;;;;;1.13;1.02;;;;;;;2.85;38.01;96564.22;5046921;28;20220;-67
2023/02/07 06:20:06;;;;;;;0.68;0.68;;;;;;;2.49;38.04;96559.63;5047512;28;20212;-65
2023/02/07 06:22:33;;;;;;;0.00;0.00;;;;;;;2.92;37.90;96559.97;5048757;28;20223;-66
2023/02/07 06:25:00;;;;;;;4.32;2.10;;;;;;;3.12;37.62;96554.41;5048293;28;20209;-65
2023/02/07 06:27:27;;;;;;;0.00;0.00;;;;;;;2.87;37.39;96570.03;5047882;28;20227;-67
2023/02/07 06:29:55;;;;;;;0.05;0.05;;;;;;;2.57;38.12;96570.78;5048049;28;20200;-68
2023/02/07 06:32:21;;;;;;;0.20;0.20;;;;;;;2.00;38.71;96571.78;5048011;28;20273;-64
2023/02/07 06:34:48;;;;;;;0.00;0.00;;;;;;;1.50;38.54;96568.50;5048568;28;20211;-64
2023/02/07 06:37:16;;;;;;;0.10;0.10;;;;;;;2.18;38.15;96569.84;5046304;28;20227;-67
2023/02/07 06:39:43;;;;;;;0.25;0.25;;;;;;;2.54;37.65;96586.59;5048268;28;20228;-68
2023/02/07 06:42:09;;;;;;;0.08;0.08;;;;;;;2.38;37.38;96586.63;5047999;28;20283;-67
2023/02/07 06:44:36;;;;;;;0.40;0.40;;;;;;;2.64;37.65;96582.06;5048273;28;20196;-67
2023/02/07 06:47:03;;;;;;;0.00;0.00;;;;;;;2.86;37.71;96586.56;5047837;28;20207;-66
2023/02/07 06:49:30;;;;;;;0.00;0.00;;;;;;;2.72;37.75;96589.81;5048260;28;20201;-65
2023/02/07 06:51:57;;;;;;;0.00;0.00;;;;;;;2.69;38.09;96595.31;5048517;28;20192;-65
2023/02/07 06:54:24;;;;;;;0.40;0.40;;;;;;;2.24;38.09;96582.13;5048110;28;20567;-68
2023/02/07 06:56:51;;;;;;;0.20;0.20;;;;;;;2.59;38.09;96594.69;5047816;28;20204;-65
2023/02/07 06:59:18;;;;;;;0.05;0.05;;;;;;;2.44;38.30;96595.53;5048123;28;20243;-64
2023/02/07 07:01:44;;;;;;;0.22;0.22;;;;;;;2.42;38.70;96593.09;5048353;28;20200;-65
2023/02/07 07:04:14;;;;;;;2.75;0.80;;;;;;;2.06;38.82;96591.84;5048529;28;20220;-66
2023/02/07 07:06:41;;;;;;;0.65;0.65;;;;;;;2.06;38.79;96586.66;5048295;28;20215;-67
2023/02/07 07:09:08;;;;;;;0.40;0.40;;;;;;;1.99;38.83;96580.50;5047987;28;20196;-65
2023/02/07 07:11:41;;;;;;;0.00;0.00;;;;;;;2.10;38.92;96587.16;5047868;28;20204;-66
2023/02/07 07:14:09;;;;;;;0.00;0.00;;;;;;;2.31;38.20;96595.22;5034810;28;20200;-65
2023/02/07 07:16:37;;;;;;;0.00;0.00;;;;;;;1.91;38.17;96583.91;5047814;28;20235;-67
2023/02/07 07:19:04;;;;;;;1.52;1.42;;;;;;;2.26;38.26;96580.19;5048068;28;20201;-65
2023/02/07 07:21:30;;;;;;;0.10;0.10;;;;;;;2.08;38.76;96589.88;5047631;28;20196;-66
2023/02/07 07:23:57;;;;;;;0.10;0.10;;;;;;;1.57;38.52;96595.34;5048425;28;20203;-65
2023/02/07 07:26:24;;;;;;;0.00;0.00;;;;;;;2.11;38.81;96594.75;5047572;28;20235;-68
2023/02/07 07:28:57;;;;;;;0.00;0.00;;;;;;;2.53;37.66;96585.00;5047849;28;20193;-64
2023/02/07 07:31:23;;;;;;;0.10;0.10;;;;;;;2.35;37.72;96602.50;5047720;28;20242;-65
2023/02/07 07:33:55;;;;;;;0.30;0.30;;;;;;;2.03;38.35;96569.69;5035129;28;20290;-64
2023/02/07 07:36:22;;;;;;;0.40;0.40;;;;;;;1.75;38.90;96577.94;5047415;28;20727;-67
2023/02/07 07:38:48;;;;;;;1.73;1.02;;;;;;;1.55;39.31;96597.28;5048033;28;20188;-65
2023/02/07 07:41:17;;;;;;;0.60;0.40;;;;;;;1.55;39.00;96571.44;5047418;28;20658;-63
2023/02/07 07:43:44;;;;;;;0.00;0.00;;;;;;;1.55;39.29;96561.09;5047214;28;20232;-65
2023/02/07 07:46:30;;;;;;;2.67;0.47;;;;;;;1.47;40.10;96592.06;5047194;28;20706;-66
2023/02/07 07:48:57;;;;;;;0.10;0.10;;;;;;;2.12;38.57;96590.38;5047861;28;20196;-65
2023/02/07 07:51:24;;;;;;;0.52;0.52;;;;;;;1.85;38.70;96588.91;5047808;28;20192;-66
2023/02/07 07:53:51;;;;;;;0.00;0.00;;;;;;;2.30;38.59;96576.28;5047787;28;20295;-65
2023/02/07 07:56:18;;;;;;;0.00;0.00;;;;;;;1.85;38.65;96588.91;5047192;28;20188;-66
2023/02/07 07:58:45;;;;;;;7.60;3.15;;;;;;;1.99;37.96;96585.66;5046151;28;20235;-66
2023/02/07 08:01:11;;;;;;;0.00;0.00;;;;;;;2.18;38.61;96589.72;5047676;28;20227;-65
2023/02/07 08:03:38;;;;;;;0.00;0.00;;;;;;;2.70;37.70;96581.41;5048555;28;20547;-66
2023/02/07 08:06:06;;;;;;;0.90;0.52;;;;;;;2.63;37.81;96584.81;5037612;28;20200;-66
2023/02/07 08:08:33;;;;;;;0.00;0.00;;;;;;;2.98;37.43;96584.41;5050931;28;20197;-65
2023/02/07 08:11:01;;;;;;;0.00;0.00;;;;;;;3.22;36.93;96592.06;5050490;28;20287;-64
2023/02/07 08:13:27;;;;;;;0.00;0.00;;;;;;;3.35;36.46;96576.78;5051303;28;20287;-67
2023/02/07 08:15:58;;;;;;;0.32;0.32;;;;;;;3.26;37.22;96577.00;5051474;28;20288;-66
2023/02/07 08:18:25;;;;;;;7.00;4.70;;;;;;;3.53;36.76;96584.31;5049673;28;20192;-65
2023/02/07 08:20:52;;;;;;;0.38;0.38;;;;;;;3.53;36.71;96573.94;5050486;28;20731;-67
2023/02/07 08:23:18;;;;;;;0.55;0.55;;;;;;;3.89;36.53;96580.19;5050855;28;20206;-66
2023/02/07 08:25:45;;;;;;;0.20;0.20;;;;;;;3.85;35.74;96584.13;5050472;28;20197;-66
2023/02/07 08:28:12;;;;;;;1.55;0.95;;;;;;;3.58;35.50;96580.22;5050273;28;20745;-67
2023/02/07 08:30:41;;;;;;;0.00;0.00;;;;;;;2.69;36.94;96579.78;5050035;28;20188;-65
2023/02/07 08:33:08;;;;;;;0.15;0.15;;;;;;;3.05;36.28;96580.97;5050278;28;20231;-66
2023/02/07 08:35:35;;;;;;;0.45;0.45;;;;;;;3.03;36.25;96582.91;5050127;28;20266;-66
2023/02/07 08:38:02;;;;;;;0.00;0.00;;;;;;;3.89;35.11;96582.78;5050522;28;20203;-66
2023/02/07 08:40:29;;;;;;;0.30;0.30;;;;;;;3.40;34.98;96535.63;5050434;28;20350;-66
2023/02/07 08:42:56;;;;;;;0.00;0.00;;;;;;;4.13;34.96;96574.81;5050626;28;20636;-67
2023/02/07 08:45:23;;;;;;;0.55;0.45;;;;;;;3.51;34.53;96575.88;5050239;28;20220;-65
2023/02/07 08:47:50;;;;;;;0.15;0.15;;;;;;;3.04;35.51;96573.38;5050349;28;20279;-66
2023/02/07 08:50:18;;;;;;;0.00;0.00;;;;;;;2.83;35.49;96586.06;5049934;28;20208;-65
2023/02/07 08:52:45;;;;;;;0.30;0.30;;;;;;;2.82;36.15;96581.84;5050176;28;20264;-66
2023/02/07 08:55:12;;;;;;;0.08;0.08;;;;;;;3.44;35.58;96585.31;5049654;28;20875;-65
2023/02/07 08:57:38;;;;;;;0.00;0.00;;;;;;;3.38;35.93;96573.03;5049783;28;20193;-66
2023/02/07 09:00:07;;;;;;;0.00;0.00;;;;;;;3.22;35.28;96580.91;5049561;28;20612;-66
2023/02/07 09:02:34;;;;;;;0.00;0.00;;;;;;;2.79;36.43;96588.16;5050030;28;20671;-65
2023/02/07 09:05:01;;;;;;;0.90;0.85;;;;;;;3.20;35.66;96572.47;5049660;28;20616;-68
2023/02/07 09:07:28;;;;;;;0.40;0.40;;;;;;;3.36;35.39;96587.97;5050020;28;20780;-66
2023/02/07 09:09:55;;;;;;;0.30;0.30;;;;;;;3.81;35.86;96595.81;5049632;28;20266;-66
2023/02/07 09:12:21;;;;;;;8.32;1.85;;;;;;;3.32;36.04;96582.31;5049844;28;20940;-66
2023/02/07 09:14:48;;;;;;;0.17;0.17;;;;;;;3.43;35.75;96591.50;5049813;28;20809;-67
2023/02/07 09:17:15;;;;;;;0.00;0.00;;;;;;;2.83;36.97;96586.88;5049753;28;20192;-65
2023/02/07 09:19:42;;;;;;;2.05;1.00;;;;;;;3.89;35.84;96593.97;5050356;28;20216;-66
2023/02/07 09:22:09;;;;;;;0.00;0.00;;;;;;;4.00;35.03;96590.16;5036434;28;20588;-67
2023/02/07 09:24:35;;;;;;;0.20;0.20;;;;;;;4.57;34.92;96583.53;5050180;28;20196;-65
2023/02/07 09:27:02;;;;;;;0.43;0.43;;;;;;;4.26;35.05;96576.81;5049435;28;20607;-66
2023/02/07 09:29:29;;;;;;;0.35;0.35;;;;;;;4.33;35.42;96581.13;5050093;28;20196;-67
2023/02/07 09:31:56;;;;;;;0.00;0.00;;;;;;;4.13;35.61;96582.59;5049054;28;20204;-66
2023/02/07 09:34:23;;;;;;;0.40;0.40;;;;;;;4.49;35.23;96573.19;5049754;28;20250;-65
2023/02/07 09:36:50;;;;;;;4.13;1.83;;;;;;;4.85;34.37;96568.94;5049088;28;20709;-65
2023/02/07 09:39:17;;;;;;;0.65;0.65;;;;;;;5.13;34.18;96577.72;5049210;28;20296;-67
2023/02/07 09:41:53;;;;;;;0.10;0.10;;;;;;;5.32;34.04;96570.34;5049062;28;20335;-65
2023/02/07 09:44:46;;;;;;;0.52;0.52;;;;;;;5.17;33.61;96565.16;5049210;28;20252;-65
2023/02/07 09:47:24;;;;;;;0.38;0.38;;;;;;;4.99;33.58;96565.53;5039073;28;20243;-68
2023/02/07 09:50:11;;;;;;;1.20;0.75;;;;;;;4.92;33.54;96553.44;5048508;28;20200;-66
2023/02/07 09:52:48;;;;;;;9.48;1.42;;;;;;;3.91;35.01;96560.06;5049220;28;20212;-65
2023/02/07 09:56:13;;;;;;;0.00;0.00;;;;;;;3.99;34.94;96565.22;5048922;28;20200;-67
2023/02/07 09:59:01;;;;;;;0.85;0.47;;;;;;;4.75;34.69;96552.81;5044431;28;20208;-66
2023/02/07 10:01:34;;;;;;;0.38;0.38;;;;;;;4.48;34.52;96550.84;5037083;28;20305;-66
2023/02/07 10:04:20;;;;;;;0.10;0.10;;;;;;;4.74;35.13;96548.63;5048977;28;20206;-67
2023/02/07 10:06:53;;;;;;;0.38;0.38;;;;;;;4.82;34.64;96538.13;5048516;28;20694;-66
2023/02/07 10:09:25;;;;;;;0.25;0.25;;;;;;;4.98;33.96;96524.94;5049144;28;20546;-65
2023/02/07 10:12:10;;;;;;;0.00;0.00;;;;;;;4.70;34.94;96549.16;5048779;28;20270;-66
2023/02/07 10:15:09;;;;;;;1.20;0.98;;;;;;;4.76;34.58;96544.03;5048918;28;20204;-65
2023/02/07 10:18:00;;;;;;;0.40;0.40;;;;;;;5.07;34.98;96520.47;5037427;28;20250;-67
2023/02/07 10:20:55;;;;;;;0.13;0.13;;;;;;;4.56;35.22;96519.59;5047939;28;20870;-66
2023/02/07 10:23:39;;;;;;;0.10;0.10;;;;;;;4.79;35.67;96519.50;5049458;28;20193;-65
2023/02/07 10:26:12;;;;;;;6.57;1.45;;;;;;;4.59;35.37;96523.63;5048117;28;20207;-64
2023/02/07 10:28:39;;;;;;;0.05;0.05;;;;;;;4.24;35.63;96519.91;5047659;28;20191;-64
2023/02/07 10:31:15;;;;;;;0.52;0.40;;;;;;;4.43;35.00;96503.84;5048470;28;20287;-65
2023/02/07 10:34:00;;;;;;;0.00;0.00;;;;;;;4.78;34.21;96510.91;5048263;28;20302;-65
2023/02/07 10:36:32;;;;;;;0.00;0.00;;;;;;;4.99;34.16;96516.19;5048014;28;20322;-66
2023/02/07 10:39:14;;;;;;;6.18;2.00;;;;;;;5.02;34.04;96510.63;5048599;28;20667;-65
2023/02/07 10:41:41;;;;;;;0.00;0.00;;;;;;;4.24;34.67;96506.94;5047814;28;20282;-65
2023/02/07 10:44:13;;;;;;;0.38;0.22;;;;;;;3.86;36.00;96508.75;5048076;28;20648;-65
2023/02/07 10:46:44;;;;;;;0.30;0.30;;;;;;;3.52;36.15;96510.13;5047840;28;20284;-66
2023/02/07 10:49:32;;;;;;;0.03;0.03;;;;;;;4.00;36.43;96509.75;5048475;28;20563;-65
2023/02/07 10:52:10;;;;;;;0.00;0.00;;;;;;;4.06;36.23;96502.09;5038041;28;20248;-65
2023/02/07 10:55:01;;;;;;;2.70;1.65;;;;;;;4.36;34.79;96505.50;5048868;28;20196;-65
2023/02/07 10:57:29;;;;;;;0.00;0.00;;;;;;;4.47;34.93;96496.50;5048256;28;20331;-66
2023/02/07 11:00:05;;;;;;;0.00;0.00;;;;;;;4.33;34.82;96497.28;5048058;28;20246;-66
2023/02/07 11:02:48;;;;;;;0.95;0.90;;;;;;;4.32;35.13;96496.50;5048959;28;20235;-68
2023/02/07 11:05:15;;;;;;;0.95;0.95;;;;;;;4.53;35.10;96495.78;5048784;28;20209;-66
2023/02/07 11:07:56;;;;;;;0.90;0.85;;;;;;;4.71;34.17;96484.03;5055589;28;20279;-65
2023/02/07 11:10:32;;;;;;;0.10;0.10;;;;;;;4.18;33.91;96473.91;5053796;28;20204;-66
2023/02/07 11:13:00;;;;;;;0.10;0.10;;;;;;;4.36;33.51;96471.78;5048591;28;20241;-65
2023/02/07 11:15:48;;;;;;;0.32;0.32;;;;;;;3.99;34.18;96479.63;5048148;28;20309;-66
2023/02/07 11:18:45;;;;;;;0.20;0.20;;;;;;;4.24;33.41;96475.81;5047995;28;20227;-66
2023/02/07 11:21:21;;;;;;;2.15;1.10;;;;;;;4.63;33.83;96463.38;5047625;28;20303;-66
2023/02/07 11:23:50;;;;;;;0.38;0.38;;;;;;;4.95;33.11;96459.56;5048275;28;20640;-66
2023/02/07 11:26:19;;;;;;;0.88;0.65;;;;;;;5.14;33.24;96470.19;5047464;28;20200;-67
2023/02/07 11:28:53;;;;;;;0.45;0.45;;;;;;;4.99;33.49;96477.22;5047974;28;20639;-65
2023/02/07 11:31:29;;;;;;;0.30;0.30;;;;;;;5.24;33.08;96453.50;5047779;28;20203;-65
2023/02/07 11:34:29;;;;;;;1.98;1.38;;;;;;;5.44;33.17;96462.31;5035717;28;20687;-66
2023/02/07 11:37:36;;;;;;;0.03;0.03;;;;;;;5.01;32.05;96438.88;5046596;28;20283;-66
2023/02/07 11:40:37;;;;;;;0.00;0.00;;;;;;;5.02;31.47;96458.66;5049796;28;20219;-66
2023/02/07 11:43:14;;;;;;;0.10;0.10;;;;;;;4.52;32.51;96453.47;5051629;28;20189;-65
2023/02/07 11:45:50;;;;;;;0.43;0.43;;;;;;;4.87;32.35;96425.91;5050870;28;20614;-66
2023/02/07 11:48:23;;;;;;;0.25;0.25;;;;;;;5.09;32.53;96451.75;5051679;28;20204;-66
2023/02/07 11:50:55;;;;;;;1.08;1.05;;;;;;;5.13;32.20;96455.59;5051072;28;20729;-65
2023/02/07 11:53:37;;;;;;;0.08;0.08;;;;;;;4.94;32.57;96448.38;5038919;28;20192;-65
2023/02/07 11:56:04;;;;;;;0.20;0.20;;;;;;;5.30;32.62;96442.34;5050749;28;20193;-67
2023/02/07 11:58:38;;;;;;;0.40;0.40;;;;;;;5.58;32.47;96451.03;5051183;28;20216;-66
2023/02/07 12:01:06;;;;;;;1.77;1.67;;;;;;;4.30;33.47;96451.75;5050570;28;20730;-66
2023/02/07 12:03:46;;;;;;;3.72;2.38;;;;;;;4.38;33.85;96446.47;5051327;28;20192;-65